Time;durP1;ratioP1;P1;durP2;ratioP2;P2;SDS_P1;SDS_P2;PMS_P1;PMS_P2;Temp;Humidity;BMP_temperature;BMP_pressure;BME280_temperature;BME280_humidity;BME280_pressure;Samples;Min_cycle;Max_cycle;Signal;HPM_P1;HPM_P2
2023/08/22 00:00:33;;;;;;;11.57;6.80;;;20.00;99.90;;;;;;4996331;28;20054;-73
2023/08/22 00:02:58;;;;;;;15.18;6.65;;;20.00;99.90;;;;;;4998605;28;20023;-73
2023/08/22 00:05:26;;;;;;;11.85;6.53;;;20.00;99.90;;;;;;5008117;28;20022;-73
2023/08/22 00:07:51;;;;;;;10.70;6.43;;;19.90;99.90;;;;;;4998725;28;20026;-73
2023/08/22 00:10:17;;;;;;;11.02;6.35;;;19.90;99.90;;;;;;5002679;28;20446;-73
2023/08/22 00:12:44;;;;;;;11.65;6.28;;;19.90;99.90;;;;;;5001394;28;20398;-73
2023/08/22 00:15:12;;;;;;;11.65;6.13;;;19.80;99.90;;;;;;4996525;28;20480;-73
2023/08/22 00:17:38;;;;;;;15.65;6.63;;;19.80;99.90;;;;;;4999093;28;20109;-73
2023/08/22 00:20:04;;;;;;;13.48;6.30;;;19.80;99.90;;;;;;5013725;28;20501;-73
2023/08/22 00:22:30;;;;;;;12.00;5.80;;;19.80;99.90;;;;;;4997102;28;20023;-73
2023/08/22 00:24:56;;;;;;;15.32;6.20;;;19.80;99.90;;;;;;4998015;28;20037;-73
2023/08/22 00:27:22;;;;;;;12.43;6.13;;;19.80;99.90;;;;;;5000554;28;20035;-72
2023/08/22 00:29:48;;;;;;;10.57;5.88;;;19.80;99.90;;;;;;4998692;28;20401;-72
2023/08/22 00:32:13;;;;;;;11.02;5.97;;;19.80;99.90;;;;;;4998310;28;20512;-72
2023/08/22 00:34:39;;;;;;;17.67;6.60;;;19.70;99.90;;;;;;5005074;28;20038;-72
2023/08/22 00:37:06;;;;;;;14.70;6.18;;;19.70;99.90;;;;;;5000827;28;20459;-72
2023/08/22 00:39:32;;;;;;;13.18;5.97;;;19.70;99.90;;;;;;5020900;28;20505;-72
2023/08/22 00:41:58;;;;;;;12.93;5.85;;;19.70;99.90;;;;;;5008279;28;20481;-72
2023/08/22 00:44:24;;;;;;;13.05;6.15;;;19.60;99.90;;;;;;5010088;28;20026;-72
2023/08/22 00:46:50;;;;;;;10.80;6.07;;;19.60;99.90;;;;;;4992338;28;20029;-72
2023/08/22 00:49:16;;;;;;;11.52;6.45;;;19.60;99.90;;;;;;5002916;28;20033;-71
2023/08/22 00:51:42;;;;;;;12.57;6.07;;;19.50;99.90;;;;;;5013198;28;20014;-72
2023/08/22 00:54:09;;;;;;;13.90;5.63;;;19.50;99.90;;;;;;5000018;28;20422;-72
2023/08/22 00:56:35;;;;;;;10.77;5.53;;;19.50;99.90;;;;;;5001544;28;20398;-72
2023/08/22 00:59:03;;;;;;;10.32;5.85;;;19.40;99.90;;;;;;4996268;28;20042;-71
2023/08/22 01:01:29;;;;;;;16.65;6.13;;;19.40;99.90;;;;;;4996689;28;20038;-72
2023/08/22 01:03:55;;;;;;;13.55;5.70;;;19.40;99.90;;;;;;5001474;28;20461;-72
2023/08/22 01:06:52;;;;;;;11.88;5.40;;;19.40;99.90;;;;;;4994009;28;20029;-72
2023/08/22 01:09:35;;;;;;;11.68;5.75;;;19.40;99.90;;;;;;4996777;28;20030;-72
2023/08/22 01:12:09;;;;;;;10.65;5.60;;;19.30;99.90;;;;;;5007557;28;20164;-72
2023/08/22 01:14:41;;;;;;;14.35;6.18;;;19.30;99.90;;;;;;4997092;28;20057;-72
2023/08/22 01:17:08;;;;;;;9.85;5.47;;;19.30;99.90;;;;;;4983396;28;20023;-72
2023/08/22 01:19:34;;;;;;;10.25;5.45;;;19.30;99.90;;;;;;4989791;28;20529;-72
2023/08/22 01:21:59;;;;;;;13.32;5.50;;;19.20;99.90;;;;;;4997093;28;20049;-72
2023/08/22 01:24:26;;;;;;;13.07;5.97;;;19.20;99.90;;;;;;4997694;28;20117;-72
2023/08/22 01:26:52;;;;;;;11.18;5.68;;;19.20;99.90;;;;;;5002069;28;20078;-72
2023/08/22 01:29:31;;;;;;;13.18;5.90;;;19.10;99.90;;;;;;4993809;28;20066;-72
2023/08/22 01:32:26;;;;;;;9.73;5.80;;;19.10;99.90;;;;;;5009270;28;20034;-72
2023/08/22 01:34:56;;;;;;;12.50;6.10;;;19.00;99.90;;;;;;4996262;28;20031;-72
2023/08/22 01:37:23;;;;;;;14.57;6.43;;;19.00;99.90;;;;;;5001860;28;20026;-72
2023/08/22 01:39:55;;;;;;;13.55;6.75;;;19.00;99.90;;;;;;4987709;28;20041;-71
2023/08/22 01:42:22;;;;;;;12.85;7.40;;;18.90;99.90;;;;;;4996743;28;20088;-72
2023/08/22 01:44:48;;;;;;;13.93;7.82;;;18.90;99.90;;;;;;4996768;28;20054;-72
2023/08/22 01:47:14;;;;;;;14.35;8.13;;;18.90;99.90;;;;;;4997528;28;20022;-72
2023/08/22 01:49:39;;;;;;;16.58;9.02;;;18.90;99.90;;;;;;4996424;28;20202;-72
2023/08/22 01:52:05;;;;;;;17.98;9.02;;;18.90;99.90;;;;;;4995354;28;20025;-72
2023/08/22 01:54:31;;;;;;;14.57;8.00;;;18.90;99.90;;;;;;4992292;28;20385;-71
2023/08/22 01:56:56;;;;;;;15.35;7.75;;;18.80;99.90;;;;;;4996603;28;20033;-72
2023/08/22 01:59:22;;;;;;;13.88;7.82;;;18.80;99.90;;;;;;4989748;28;20050;-72
2023/08/22 02:01:48;;;;;;;14.30;7.53;;;18.80;99.90;;;;;;5004928;28;20505;-72
2023/08/22 02:04:13;;;;;;;13.40;7.63;;;18.80;99.90;;;;;;5008720;28;20030;-71
2023/08/22 02:06:39;;;;;;;15.77;7.70;;;18.80;99.90;;;;;;5010055;28;20033;-72
2023/08/22 02:09:05;;;;;;;11.35;6.70;;;18.80;99.90;;;;;;4991050;28;20398;-72
2023/08/22 02:11:31;;;;;;;12.38;6.40;;;18.80;99.90;;;;;;4997003;28;20030;-72
2023/08/22 02:13:56;;;;;;;12.20;6.50;;;18.80;99.90;;;;;;4997984;28;20530;-72
2023/08/22 02:16:23;;;;;;;13.30;6.00;;;18.80;99.90;;;;;;4997081;28;20054;-72
2023/08/22 02:18:48;;;;;;;12.73;5.90;;;18.80;99.90;;;;;;5002400;28;20036;-72
2023/08/22 02:21:16;;;;;;;9.30;5.80;;;18.80;99.90;;;;;;5000259;28;20057;-72
2023/08/22 02:23:42;;;;;;;11.85;5.63;;;18.70;99.90;;;;;;4995866;28;20031;-72
2023/08/22 02:26:07;;;;;;;13.30;5.75;;;18.70;99.90;;;;;;4997121;28;20018;-72
2023/08/22 02:28:33;;;;;;;11.25;5.20;;;18.70;99.90;;;;;;5000285;28;20034;-72
2023/08/22 02:30:59;;;;;;;10.00;4.70;;;18.60;99.90;;;;;;5004378;28;20029;-72
2023/08/22 02:33:25;;;;;;;8.57;5.00;;;18.60;99.90;;;;;;5004930;28;20474;-72
2023/08/22 02:35:50;;;;;;;8.70;4.78;;;18.60;99.90;;;;;;5000189;28;20029;-72
2023/08/22 02:38:16;;;;;;;8.20;4.18;;;18.60;99.90;;;;;;4998629;28;20113;-72
2023/08/22 02:40:42;;;;;;;13.40;5.05;;;18.60;99.90;;;;;;4999876;28;20030;-71
2023/08/22 02:43:07;;;;;;;10.75;4.82;;;18.60;99.90;;;;;;4999581;28;20018;-72
2023/08/22 02:45:33;;;;;;;8.85;4.53;;;18.60;99.90;;;;;;5009308;28;20029;-72
2023/08/22 02:47:59;;;;;;;10.25;4.43;;;18.50;99.90;;;;;;5003002;28;20026;-72
2023/08/22 02:50:24;;;;;;;13.02;4.95;;;18.50;99.90;;;;;;4999842;28;20514;-72
2023/08/22 02:52:51;;;;;;;9.13;4.53;;;18.50;99.90;;;;;;4999415;28;20026;-72
2023/08/22 02:55:17;;;;;;;10.35;4.53;;;18.50;99.90;;;;;;5014805;28;20022;-72
2023/08/22 02:57:43;;;;;;;9.43;4.75;;;18.50;99.90;;;;;;5010751;28;20086;-71
2023/08/22 03:00:13;;;;;;;9.68;4.97;;;18.50;99.90;;;;;;5003042;28;20094;-72
2023/08/22 03:02:39;;;;;;;11.05;5.20;;;18.50;99.90;;;;;;4999291;28;20533;-71
2023/08/22 03:05:07;;;;;;;10.10;4.85;;;18.40;99.90;;;;;;4989231;28;20027;-72
2023/08/22 03:07:33;;;;;;;11.35;5.40;;;18.40;99.90;;;;;;4998521;28;20049;-72
2023/08/22 03:09:58;;;;;;;11.57;5.18;;;18.40;99.90;;;;;;4999473;28;20034;-72
2023/08/22 03:12:24;;;;;;;10.15;5.25;;;18.40;99.90;;;;;;5000986;28;20486;-72
2023/08/22 03:14:50;;;;;;;10.48;5.32;;;18.40;99.90;;;;;;4991709;28;20386;-72
2023/08/22 03:17:15;;;;;;;10.70;5.38;;;18.40;99.90;;;;;;5011710;28;20022;-72
2023/08/22 03:19:41;;;;;;;11.93;5.65;;;18.40;99.90;;;;;;4994811;28;20041;-72
2023/08/22 03:22:06;;;;;;;13.68;5.43;;;18.30;99.90;;;;;;5012851;28;20018;-72
2023/08/22 03:24:32;;;;;;;13.45;6.25;;;18.40;99.90;;;;;;5002424;28;20053;-72
2023/08/22 03:26:58;;;;;;;16.08;6.75;;;18.30;99.90;;;;;;4998493;28;20398;-72
2023/08/22 03:29:23;;;;;;;14.63;6.70;;;18.30;99.90;;;;;;5009330;28;20034;-72
2023/08/22 03:31:49;;;;;;;12.90;6.20;;;18.30;99.90;;;;;;5009271;28;20030;-71
2023/08/22 03:34:15;;;;;;;10.93;6.03;;;18.30;99.90;;;;;;5009311;28;20425;-71
2023/08/22 03:36:41;;;;;;;12.32;6.50;;;18.30;99.90;;;;;;4999557;28;20019;-72
2023/08/22 03:39:07;;;;;;;13.45;6.28;;;18.30;99.90;;;;;;4997245;28;20065;-72
2023/08/22 03:41:32;;;;;;;13.38;6.70;;;18.30;99.90;;;;;;4988732;28;20030;-71
2023/08/22 03:43:58;;;;;;;15.65;6.70;;;18.30;99.90;;;;;;4995522;28;20115;-72
2023/08/22 03:46:24;;;;;;;13.18;6.38;;;18.30;99.90;;;;;;4998485;28;20532;-71
2023/08/22 03:48:49;;;;;;;15.02;6.60;;;18.30;99.90;;;;;;4998157;28;20026;-72
2023/08/22 03:51:15;;;;;;;13.73;7.30;;;18.20;99.90;;;;;;5010355;28;20082;-72
2023/08/22 03:53:41;;;;;;;15.70;7.15;;;18.30;99.90;;;;;;4999237;28;20027;-71
2023/08/22 03:56:06;;;;;;;18.45;7.45;;;18.20;99.90;;;;;;4997848;28;20508;-71
2023/08/22 03:58:33;;;;;;;12.93;6.72;;;18.20;99.90;;;;;;5013304;28;20539;-71
2023/08/22 04:01:05;;;;;;;14.02;6.85;;;18.20;99.90;;;;;;4996168;28;20064;-72
2023/08/22 04:03:31;;;;;;;14.55;6.88;;;18.20;99.90;;;;;;4997790;28;20485;-72
2023/08/22 04:06:00;;;;;;;13.63;6.53;;;18.20;99.90;;;;;;5002096;28;20024;-72
2023/08/22 04:08:26;;;;;;;12.38;6.95;;;18.20;99.90;;;;;;4995689;28;20026;-72
2023/08/22 04:10:52;;;;;;;12.85;6.13;;;18.20;99.90;;;;;;4989178;28;20033;-72
2023/08/22 04:13:18;;;;;;;14.13;6.78;;;18.20;99.90;;;;;;5015496;28;20065;-71
2023/08/22 04:15:44;;;;;;;13.68;6.88;;;18.20;99.90;;;;;;5006537;28;20030;-71
2023/08/22 04:18:09;;;;;;;12.40;6.70;;;18.20;99.90;;;;;;5001171;28;20026;-72
2023/08/22 04:20:35;;;;;;;12.38;7.07;;;18.20;99.90;;;;;;4993813;28;20038;-71
2023/08/22 04:23:01;;;;;;;18.98;7.75;;;18.10;99.90;;;;;;5011768;28;20046;-72
2023/08/22 04:25:26;;;;;;;16.77;7.63;;;18.10;99.90;;;;;;4996196;28;20018;-72
2023/08/22 04:27:52;;;;;;;14.23;6.75;;;18.10;99.90;;;;;;5000622;28;20038;-72
2023/08/22 04:30:18;;;;;;;17.92;7.65;;;18.10;99.90;;;;;;4998198;28;20048;-71
2023/08/22 04:32:44;;;;;;;18.00;8.63;;;18.00;99.90;;;;;;4998213;28;20054;-72
2023/08/22 04:35:10;;;;;;;15.73;8.23;;;18.00;99.90;;;;;;4997817;28;20110;-71
2023/08/22 04:37:36;;;;;;;16.20;8.00;;;18.00;99.90;;;;;;4995596;28;20058;-72
2023/08/22 04:40:03;;;;;;;14.57;7.38;;;18.00;99.90;;;;;;4989274;28;20045;-72
2023/08/22 04:42:29;;;;;;;16.55;8.07;;;17.90;99.90;;;;;;4995697;28;20015;-72
2023/08/22 04:44:54;;;;;;;16.40;7.70;;;17.90;99.90;;;;;;4995909;28;20026;-72
2023/08/22 04:47:20;;;;;;;19.50;7.85;;;17.90;99.90;;;;;;4993811;28;20078;-72
2023/08/22 04:49:46;;;;;;;17.88;7.50;;;17.90;99.90;;;;;;4995086;28;20578;-73
2023/08/22 04:52:12;;;;;;;17.58;7.60;;;17.90;99.90;;;;;;4995792;28;20018;-73
2023/08/22 04:54:38;;;;;;;14.88;6.75;;;17.90;99.90;;;;;;4997761;28;20058;-72
2023/08/22 04:57:03;;;;;;;14.15;6.78;;;17.90;99.90;;;;;;4993279;28;20034;-73
2023/08/22 04:59:29;;;;;;;14.25;7.18;;;17.90;99.90;;;;;;4992007;28;20124;-71
2023/08/22 05:01:55;;;;;;;15.45;7.22;;;17.90;99.90;;;;;;4995298;28;20482;-73
2023/08/22 05:04:20;;;;;;;17.80;6.80;;;17.90;99.90;;;;;;5004395;28;20033;-72
2023/08/22 05:06:46;;;;;;;18.15;6.90;;;17.90;99.90;;;;;;4987696;28;20106;-72
2023/08/22 05:09:16;;;;;;;16.70;7.50;;;17.90;99.90;;;;;;4991356;28;20432;-72
2023/08/22 05:11:42;;;;;;;21.13;8.20;;;17.90;99.90;;;;;;4989665;28;20027;-73
2023/08/22 05:14:08;;;;;;;14.65;8.00;;;17.90;99.90;;;;;;5004594;28;20337;-72
2023/08/22 05:16:35;;;;;;;19.08;7.75;;;17.90;99.90;;;;;;4989614;28;20147;-71
2023/08/22 05:19:00;;;;;;;17.73;8.00;;;17.90;99.90;;;;;;4992058;28;20026;-71
2023/08/22 05:21:26;;;;;;;17.65;8.05;;;18.00;99.90;;;;;;4993620;28;20030;-71
2023/08/22 05:23:52;;;;;;;17.65;7.88;;;18.00;99.90;;;;;;4994612;28;20080;-71
2023/08/22 05:26:17;;;;;;;16.65;7.88;;;18.00;99.90;;;;;;4990086;28;20023;-72
2023/08/22 05:28:43;;;;;;;22.20;8.68;;;18.10;99.90;;;;;;4986268;28;20026;-72
2023/08/22 05:31:17;;;;;;;15.75;8.00;;;18.10;99.90;;;;;;4990827;28;20080;-72
2023/08/22 05:33:43;;;;;;;17.05;8.30;;;18.10;99.90;;;;;;5004410;28;20023;-72
2023/08/22 05:36:09;;;;;;;15.50;8.55;;;18.10;99.90;;;;;;4986956;28;20034;-72
2023/08/22 05:38:35;;;;;;;19.98;8.77;;;18.20;99.90;;;;;;4987756;28;20077;-72
2023/08/22 05:41:00;;;;;;;15.73;8.63;;;18.20;99.90;;;;;;4983543;28;20035;-72
2023/08/22 05:43:26;;;;;;;14.65;8.43;;;18.20;99.90;;;;;;4993409;28;20027;-72
2023/08/22 05:45:52;;;;;;;18.95;9.20;;;18.30;99.90;;;;;;4994529;28;20026;-72
2023/08/22 05:48:17;;;;;;;18.30;9.27;;;18.30;99.90;;;;;;4989464;28;20042;-72
2023/08/22 05:50:43;;;;;;;16.55;9.23;;;18.30;99.90;;;;;;4993185;28;20026;-72
2023/08/22 05:53:08;;;;;;;20.30;9.10;;;18.40;99.90;;;;;;4994768;28;20367;-72
2023/08/22 05:55:34;;;;;;;21.77;9.27;;;18.40;99.90;;;;;;5010021;28;20026;-72
2023/08/22 05:57:59;;;;;;;21.15;9.68;;;18.40;99.90;;;;;;5002495;28;20026;-72
2023/08/22 06:00:25;;;;;;;19.75;9.90;;;18.50;99.90;;;;;;4989098;28;20046;-72
2023/08/22 06:02:51;;;;;;;20.55;10.50;;;18.60;99.90;;;;;;4993173;28;20029;-72
2023/08/22 06:05:16;;;;;;;25.63;10.25;;;18.70;99.90;;;;;;4994255;28;20030;-72
2023/08/22 06:07:42;;;;;;;27.20;11.27;;;18.70;99.90;;;;;;4985512;28;20466;-72
2023/08/22 06:10:07;;;;;;;20.40;11.23;;;18.80;99.90;;;;;;4998641;28;20023;-72
2023/08/22 06:12:33;;;;;;;20.95;10.38;;;18.80;99.90;;;;;;4995641;28;20053;-72
2023/08/22 06:14:59;;;;;;;23.15;11.48;;;18.90;99.90;;;;;;5003430;28;20058;-72
2023/08/22 06:17:24;;;;;;;23.92;11.73;;;19.00;99.90;;;;;;4995545;28;20026;-72
2023/08/22 06:19:50;;;;;;;27.55;12.10;;;19.00;99.90;;;;;;4994318;28;20058;-72
2023/08/22 06:22:15;;;;;;;32.83;13.30;;;19.00;99.90;;;;;;5004849;28;20029;-71
2023/08/22 06:24:41;;;;;;;27.15;13.75;;;19.00;99.90;;;;;;5001541;28;20022;-72
2023/08/22 06:27:07;;;;;;;22.83;13.52;;;19.10;99.90;;;;;;4993955;28;20101;-72
2023/08/22 06:29:33;;;;;;;29.25;14.18;;;19.10;99.90;;;;;;4993744;28;20022;-72
2023/08/22 06:32:01;;;;;;;30.35;14.45;;;19.10;99.90;;;;;;4993340;28;20037;-72
2023/08/22 06:34:30;;;;;;;32.65;15.25;;;19.10;99.90;;;;;;4982795;28;20057;-72
2023/08/22 06:36:55;;;;;;;31.80;16.33;;;19.10;99.90;;;;;;4993392;28;20520;-71
2023/08/22 06:39:21;;;;;;;33.22;16.05;;;19.10;99.90;;;;;;4993474;28;20039;-71
2023/08/22 06:41:47;;;;;;;32.42;15.77;;;19.20;99.90;;;;;;4993360;28;20031;-72
2023/08/22 06:44:13;;;;;;;28.58;14.52;;;19.20;99.90;;;;;;4993322;28;20022;-72
2023/08/22 06:46:39;;;;;;;31.17;14.82;;;19.20;99.90;;;;;;5000519;28;20022;-72
2023/08/22 06:49:04;;;;;;;28.95;14.93;;;19.30;99.90;;;;;;5008348;28;20492;-72
2023/08/22 06:51:31;;;;;;;30.42;14.95;;;19.30;99.90;;;;;;4992717;28;20077;-72
2023/08/22 06:53:57;;;;;;;24.45;14.50;;;19.40;99.90;;;;;;4988309;28;20116;-72
2023/08/22 06:56:23;;;;;;;39.50;15.52;;;19.40;99.90;;;;;;4992728;28;20057;-72
2023/08/22 06:58:49;;;;;;;31.45;14.40;;;19.50;99.90;;;;;;5010758;28;20025;-72
2023/08/22 07:01:14;;;;;;;25.92;13.98;;;19.50;99.90;;;;;;4992602;28;20057;-72
2023/08/22 07:03:42;;;;;;;30.63;14.75;;;19.60;99.90;;;;;;4995982;28;20026;-72
2023/08/22 07:06:08;;;;;;;28.23;14.63;;;19.60;99.90;;;;;;4993764;28;20022;-72
2023/08/22 07:08:33;;;;;;;36.95;13.98;;;19.60;99.90;;;;;;4992640;28;20038;-72
2023/08/22 07:11:02;;;;;;;31.38;14.05;;;19.70;99.90;;;;;;4998086;28;20029;-72
2023/08/22 07:13:28;;;;;;;29.80;14.20;;;19.70;99.90;;;;;;4987290;28;20026;-72
2023/08/22 07:15:54;;;;;;;29.95;14.57;;;19.80;99.90;;;;;;4992313;28;20030;-72
2023/08/22 07:18:19;;;;;;;30.40;14.57;;;19.80;99.90;;;;;;4995457;28;20030;-72
2023/08/22 07:20:46;;;;;;;29.27;14.68;;;19.80;99.90;;;;;;5013542;28;20033;-72
2023/08/22 07:23:12;;;;;;;25.95;13.90;;;19.90;99.90;;;;;;5002386;28;20026;-73
2023/08/22 07:25:40;;;;;;;28.77;14.05;;;19.90;99.90;;;;;;4998273;28;20018;-73
2023/08/22 07:28:06;;;;;;;24.25;13.73;;;20.00;99.90;;;;;;4997547;28;20033;-74
2023/08/22 07:30:34;;;;;;;31.30;13.43;;;20.00;99.90;;;;;;4997481;28;20242;-73
2023/08/22 07:33:00;;;;;;;28.75;13.48;;;20.00;99.90;;;;;;4996416;28;20165;-73
2023/08/22 07:35:27;;;;;;;26.90;12.63;;;20.00;99.90;;;;;;4996549;28;20050;-74
2023/08/22 07:37:53;;;;;;;24.73;13.13;;;20.00;99.90;;;;;;4997982;28;20021;-74
2023/08/22 07:40:19;;;;;;;26.95;13.18;;;20.10;99.90;;;;;;4998068;28;20038;-73
2023/08/22 07:42:44;;;;;;;24.40;12.25;;;20.10;99.90;;;;;;4996779;28;20022;-72
2023/08/22 07:45:10;;;;;;;24.02;12.80;;;20.20;99.90;;;;;;4990306;28;20444;-73
2023/08/22 07:47:36;;;;;;;22.25;12.15;;;20.30;99.90;;;;;;4994467;28;20026;-72
2023/08/22 07:50:03;;;;;;;27.33;12.40;;;20.30;99.90;;;;;;4988351;28;20385;-71
2023/08/22 07:52:30;;;;;;;26.17;11.70;;;20.40;99.90;;;;;;5009538;28;20095;-73
2023/08/22 07:54:56;;;;;;;32.00;12.07;;;20.40;99.90;;;;;;4993912;28;20084;-73
2023/08/22 07:57:21;;;;;;;31.67;12.43;;;20.50;99.90;;;;;;4990715;28;20023;-73
2023/08/22 07:59:47;;;;;;;23.70;11.65;;;20.60;99.90;;;;;;4986780;28;20528;-73
2023/08/22 08:02:12;;;;;;;23.13;11.77;;;20.70;99.90;;;;;;5009425;28;20477;-73
2023/08/22 08:04:39;;;;;;;21.92;11.82;;;20.70;99.90;;;;;;4994503;28;20030;-72
2023/08/22 08:07:05;;;;;;;27.30;11.57;;;20.80;99.90;;;;;;4983934;28;20316;-73
2023/08/22 08:09:32;;;;;;;22.33;11.20;;;20.90;99.90;;;;;;4996646;28;20034;-73
2023/08/22 08:11:58;;;;;;;20.98;10.55;;;21.00;99.90;;;;;;4996329;28;20478;-73
2023/08/22 08:14:24;;;;;;;22.45;11.10;;;21.10;99.90;;;;;;4994799;28;20037;-73
2023/08/22 08:16:49;;;;;;;23.85;10.55;;;21.20;99.90;;;;;;4998003;28;20037;-73
2023/08/22 08:19:15;;;;;;;23.55;9.82;;;21.20;99.90;;;;;;4991714;28;20062;-73
2023/08/22 08:21:41;;;;;;;20.08;8.68;;;21.30;99.90;;;;;;4989578;28;20105;-73
2023/08/22 08:24:07;;;;;;;16.70;8.00;;;21.30;99.90;;;;;;4989617;28;20023;-73
2023/08/22 08:26:33;;;;;;;12.50;6.47;;;21.40;99.90;;;;;;4988426;28;20034;-73
2023/08/22 08:28:58;;;;;;;15.13;4.43;;;21.50;99.90;;;;;;4996754;28;20033;-73
2023/08/22 08:31:24;;;;;;;12.32;4.20;;;21.50;99.90;;;;;;4988694;28;20113;-73
2023/08/22 08:33:50;;;;;;;12.88;4.15;;;21.60;99.90;;;;;;4989972;28;20480;-73
2023/08/22 08:36:17;;;;;;;15.88;4.60;;;21.60;99.90;;;;;;4988572;28;20106;-73
2023/08/22 08:38:42;;;;;;;13.23;4.95;;;21.70;99.90;;;;;;4986912;28;20121;-73
2023/08/22 08:41:09;;;;;;;15.23;4.32;;;21.80;99.90;;;;;;4984223;28;20109;-73
2023/08/22 08:43:35;;;;;;;12.93;4.47;;;21.80;99.90;;;;;;4989578;28;20081;-73
2023/08/22 08:46:03;;;;;;;24.52;4.93;;;21.90;99.90;;;;;;4983954;28;20030;-73
2023/08/22 08:48:29;;;;;;;11.27;3.70;;;21.80;99.90;;;;;;4988224;28;20022;-72
2023/08/22 08:50:59;;;;;;;12.02;3.70;;;21.80;99.90;;;;;;4997976;28;20174;-72
2023/08/22 08:53:27;;;;;;;12.50;3.60;;;21.90;99.90;;;;;;4998676;28;20020;-72
2023/08/22 08:55:53;;;;;;;17.60;3.63;;;21.90;99.90;;;;;;4988737;28;20026;-73
2023/08/22 08:58:18;;;;;;;10.68;3.72;;;22.00;99.90;;;;;;4991345;28;20041;-73
2023/08/22 09:00:45;;;;;;;8.90;3.03;;;22.00;99.90;;;;;;4993502;28;20047;-73
2023/08/22 09:03:11;;;;;;;10.02;3.63;;;22.10;99.90;;;;;;4996244;28;20022;-73
2023/08/22 09:05:37;;;;;;;9.50;3.13;;;22.10;99.90;;;;;;4991150;28;20797;-73
2023/08/22 09:08:17;;;;;;;9.73;2.95;;;22.10;99.90;;;;;;4979409;28;20077;-73
2023/08/22 09:10:47;;;;;;;12.82;3.30;;;22.20;99.90;;;;;;4986389;28;20039;-73
2023/08/22 09:13:13;;;;;;;9.02;3.05;;;22.20;99.90;;;;;;4987288;28;20027;-73
2023/08/22 09:15:41;;;;;;;9.23;3.22;;;22.30;99.90;;;;;;4985611;28;20023;-73
2023/08/22 09:18:06;;;;;;;9.70;2.85;;;22.50;99.90;;;;;;4984721;28;20028;-73
2023/08/22 09:20:32;;;;;;;10.95;2.60;;;22.50;99.90;;;;;;4988467;28;20038;-73
2023/08/22 09:22:58;;;;;;;8.00;2.30;;;22.40;99.90;;;;;;4990363;28;20398;-73
2023/08/22 09:25:38;;;;;;;12.15;3.13;;;22.30;99.90;;;;;;4994100;28;20025;-73
2023/08/22 09:28:08;;;;;;;11.80;3.03;;;22.30;99.90;;;;;;4987354;28;20383;-73
2023/08/22 09:30:34;;;;;;;15.68;3.40;;;22.30;99.90;;;;;;4989660;28;20053;-73
2023/08/22 09:33:00;;;;;;;13.85;2.72;;;22.30;99.90;;;;;;4990447;28;20073;-73
2023/08/22 09:35:32;;;;;;;9.90;2.72;;;22.30;99.90;;;;;;4990654;28;20034;-73
2023/08/22 09:38:08;;;;;;;35.65;3.25;;;22.40;99.90;;;;;;4990529;28;20386;-73
2023/08/22 09:40:34;;;;;;;11.95;2.75;;;22.50;99.90;;;;;;4986451;28;20217;-73
2023/08/22 09:43:01;;;;;;;9.77;2.78;;;22.50;99.90;;;;;;4990346;28;20113;-73
2023/08/22 09:45:31;;;;;;;14.45;2.97;;;22.60;99.90;;;;;;4983338;28;20057;-74
2023/08/22 09:48:00;;;;;;;8.50;2.50;;;22.70;99.90;;;;;;4981300;28;20019;-73
2023/08/22 09:50:36;;;;;;;11.10;3.00;;;22.70;99.90;;;;;;4989804;28;20019;-72
2023/08/22 09:53:02;;;;;;;8.13;3.15;;;22.70;99.90;;;;;;4984566;28;20026;-73
2023/08/22 09:55:29;;;;;;;10.15;2.75;;;22.60;99.90;;;;;;4982596;28;20047;-73
2023/08/22 09:57:55;;;;;;;7.88;3.10;;;22.70;99.90;;;;;;4982918;28;20025;-74
2023/08/22 10:00:22;;;;;;;12.63;3.72;;;22.70;99.90;;;;;;4983557;28;20046;-73
2023/08/22 10:02:48;;;;;;;13.55;3.30;;;22.60;99.90;;;;;;4988147;28;20618;-73
2023/08/22 10:05:14;;;;;;;9.82;3.17;;;22.70;99.90;;;;;;4995236;28;20019;-73
2023/08/22 10:07:40;;;;;;;9.98;3.10;;;22.70;99.90;;;;;;4991128;28;20600;-73
2023/08/22 10:10:06;;;;;;;12.95;3.80;;;22.70;99.90;;;;;;4992049;28;20030;-73
2023/08/22 10:12:33;;;;;;;8.50;3.60;;;22.70;99.90;;;;;;4989714;28;20452;-73
2023/08/22 10:15:03;;;;;;;10.32;3.85;;;22.70;99.90;;;;;;4989637;28;20282;-73
2023/08/22 10:17:31;;;;;;;11.68;3.78;;;22.70;99.90;;;;;;4990245;28;20126;-73
2023/08/22 10:20:04;;;;;;;9.20;3.10;;;22.80;99.90;;;;;;4991582;28;20382;-73
2023/08/22 10:22:34;;;;;;;12.75;3.53;;;22.90;99.90;;;;;;4988299;28;20031;-73
2023/08/22 10:25:06;;;;;;;12.25;3.45;;;23.00;99.90;;;;;;4986662;28;20026;-73
2023/08/22 10:27:32;;;;;;;13.15;3.25;;;23.00;99.90;;;;;;4991913;28;20522;-76
2023/08/22 10:30:14;;;;;;;14.80;4.20;;;23.00;99.90;;;;;;4996662;28;20033;-76
2023/08/22 10:32:41;;;;;;;14.55;3.88;;;23.10;99.90;;;;;;4991866;28;20030;-76
2023/08/22 10:35:10;;;;;;;14.65;3.67;;;23.20;99.90;;;;;;4990269;28;20018;-76
2023/08/22 10:37:48;;;;;;;13.57;4.43;;;23.30;99.90;;;;;;4997193;28;20037;-76
2023/08/22 10:40:20;;;;;;;15.57;3.47;;;23.30;99.90;;;;;;4997181;28;20069;-76
2023/08/22 10:42:52;;;;;;;8.05;2.80;;;23.30;99.90;;;;;;5001847;28;20085;-76
2023/08/22 10:45:18;;;;;;;9.68;3.20;;;23.20;99.90;;;;;;4988543;28;20118;-76
2023/08/22 10:47:49;;;;;;;13.52;3.90;;;23.20;99.90;;;;;;5002509;28;20022;-77
2023/08/22 10:50:16;;;;;;;9.38;3.13;;;23.20;99.90;;;;;;5006971;28;20049;-76
2023/08/22 10:52:41;;;;;;;8.23;3.17;;;23.10;99.90;;;;;;4999048;28;20319;-75
2023/08/22 10:55:12;;;;;;;11.30;3.10;;;23.10;99.90;;;;;;5009258;28;20122;-75
2023/08/22 10:57:43;;;;;;;10.32;3.35;;;23.10;99.90;;;;;;4998478;28;20473;-77
2023/08/22 11:00:19;;;;;;;9.27;2.80;;;23.10;99.90;;;;;;4999441;28;20121;-76
2023/08/22 11:02:51;;;;;;;11.43;3.10;;;23.20;99.90;;;;;;5013958;28;20118;-76
2023/08/22 11:05:18;;;;;;;10.05;2.70;;;23.20;99.90;;;;;;4996584;28;20042;-76
2023/08/22 11:07:49;;;;;;;10.25;3.20;;;23.20;99.90;;;;;;5005064;28;20022;-77
2023/08/22 11:10:16;;;;;;;11.02;3.30;;;23.10;99.90;;;;;;5001105;28;20481;-76
2023/08/22 11:12:43;;;;;;;5.95;2.60;;;23.20;99.90;;;;;;5008970;28;20057;-76
2023/08/22 11:15:10;;;;;;;6.75;2.33;;;23.10;99.90;;;;;;4999947;28;20486;-76
2023/08/22 11:17:39;;;;;;;6.50;2.42;;;23.20;99.90;;;;;;5016237;28;20525;-76
2023/08/22 11:20:12;;;;;;;7.93;3.10;;;23.30;99.90;;;;;;4999878;28;20062;-76
2023/08/22 11:22:40;;;;;;;11.90;3.17;;;23.40;99.90;;;;;;4999067;28;20050;-75
2023/08/22 11:25:06;;;;;;;6.95;3.17;;;23.40;99.90;;;;;;4997554;28;20050;-76
2023/08/22 11:27:36;;;;;;;8.88;3.08;;;23.50;99.90;;;;;;5000275;28;20022;-75
2023/08/22 11:30:01;;;;;;;8.70;3.17;;;23.50;99.90;;;;;;5003526;28;20018;-75
2023/08/22 11:32:35;;;;;;;12.73;3.00;;;23.50;99.90;;;;;;5004017;28;20015;-75
2023/08/22 11:35:05;;;;;;;12.55;3.30;;;23.50;99.90;;;;;;4998112;28;20058;-75
2023/08/22 11:37:33;;;;;;;13.32;3.22;;;23.40;99.90;;;;;;4998177;28;20378;-75
2023/08/22 11:39:59;;;;;;;8.10;2.60;;;23.50;99.90;;;;;;4995045;28;20491;-75
2023/08/22 11:42:29;;;;;;;6.05;2.47;;;23.60;99.90;;;;;;5007763;28;20034;-74
2023/08/22 11:45:04;;;;;;;10.25;2.78;;;23.70;99.90;;;;;;4995701;28;20072;-74
2023/08/22 11:47:44;;;;;;;5.00;2.10;;;23.80;99.90;;;;;;4996962;28;20101;-76
2023/08/22 11:50:14;;;;;;;8.45;2.58;;;23.80;99.90;;;;;;5000579;28;20035;-75
2023/08/22 11:52:44;;;;;;;9.35;2.53;;;23.70;99.90;;;;;;5001293;28;20098;-75
2023/08/22 11:55:12;;;;;;;9.93;2.72;;;23.70;99.90;;;;;;4989923;28;20038;-75
2023/08/22 11:57:39;;;;;;;8.48;2.33;;;23.70;99.90;;;;;;5001397;28;20355;-74
2023/08/22 12:00:07;;;;;;;7.75;3.20;;;23.50;99.90;;;;;;4999882;28;20053;-74
2023/08/22 12:02:35;;;;;;;8.80;2.42;;;23.50;99.90;;;;;;4995407;28;20038;-74
2023/08/22 12:05:01;;;;;;;5.82;2.30;;;23.40;99.90;;;;;;4997150;28;20033;-74
2023/08/22 12:07:27;;;;;;;8.73;2.45;;;23.40;99.90;;;;;;4999560;28;20109;-75
2023/08/22 12:10:03;;;;;;;4.85;2.00;;;23.40;99.90;;;;;;5000595;28;20054;-73
2023/08/22 12:12:30;;;;;;;7.90;1.98;;;23.40;99.90;;;;;;4997397;28;20105;-73
2023/08/22 12:14:56;;;;;;;7.20;2.25;;;23.40;99.90;;;;;;4995318;28;20026;-73
2023/08/22 12:17:22;;;;;;;5.88;1.70;;;23.40;99.90;;;;;;4995649;28;20029;-72
2023/08/22 12:19:48;;;;;;;7.07;2.25;;;23.50;99.90;;;;;;5011751;28;20105;-72
2023/08/22 12:22:14;;;;;;;7.72;2.20;;;23.70;99.90;;;;;;4997880;28;20026;-72
2023/08/22 12:24:43;;;;;;;7.25;2.08;;;23.90;99.90;;;;;;5012217;28;20177;-72
2023/08/22 12:27:08;;;;;;;6.82;1.50;;;24.20;99.90;;;;;;4996478;28;20022;-73
2023/08/22 12:29:34;;;;;;;7.03;1.90;;;24.40;99.90;;;;;;4996072;28;20103;-72
2023/08/22 12:31:59;;;;;;;2.90;1.55;;;24.50;99.90;;;;;;4997968;28;20078;-73
2023/08/22 12:34:25;;;;;;;7.22;2.10;;;24.50;99.90;;;;;;4999952;28;20050;-72
2023/08/22 12:36:51;;;;;;;9.02;1.92;;;24.60;99.90;;;;;;5006982;28;20022;-73